sensor_id;sensor_type;location;lat;lon;timestamp;pressure;altitude;pressure_sealevel;temperature;humidity
59831;BME280;45711;50.108;13.712;2023-12-28T00:00:46;98006.91;;;1.96;100.00
59831;BME280;45711;50.108;13.712;2023-12-28T00:03:12;97998.09;;;2.02;100.00
59831;BME280;45711;50.108;13.712;2023-12-28T00:05:37;98009.22;;;2.04;100.00
59831;BME280;45711;50.108;13.712;2023-12-28T00:08:06;98022.38;;;2.11;100.00
59831;BME280;45711;50.108;13.712;2023-12-28T00:10:32;98009.06;;;2.17;100.00
59831;BME280;45711;50.108;13.712;2023-12-28T00:12:59;98007.41;;;2.23;100.00
59831;BME280;45711;50.108;13.712;2023-12-28T00:15:24;97996.47;;;2.19;100.00
59831;BME280;45711;50.108;13.712;2023-12-28T00:17:50;97998.03;;;2.39;100.00
59831;BME280;45711;50.108;13.712;2023-12-28T00:20:16;97996.00;;;2.41;100.00
59831;BME280;45711;50.108;13.712;2023-12-28T00:22:41;97979.97;;;2.54;100.00
59831;BME280;45711;50.108;13.712;2023-12-28T00:25:08;97981.00;;;2.53;100.00
59831;BME280;45711;50.108;13.712;2023-12-28T00:27:33;97983.50;;;2.48;100.00
59831;BME280;45711;50.108;13.712;2023-12-28T00:30:02;97981.75;;;2.42;100.00
59831;BME280;45711;50.108;13.712;2023-12-28T00:32:28;97995.47;;;2.50;100.00
59831;BME280;45711;50.108;13.712;2023-12-28T00:34:53;97979.91;;;2.42;100.00
59831;BME280;45711;50.108;13.712;2023-12-28T00:37:19;97982.19;;;2.39;100.00
59831;BME280;45711;50.108;13.712;2023-12-28T00:39:45;97978.22;;;2.48;100.00
59831;BME280;45711;50.108;13.712;2023-12-28T00:42:13;97974.25;;;2.57;100.00
59831;BME280;45711;50.108;13.712;2023-12-28T00:44:39;97963.44;;;2.59;100.00
59831;BME280;45711;50.108;13.712;2023-12-28T00:47:06;97970.03;;;2.91;100.00
59831;BME280;45711;50.108;13.712;2023-12-28T00:49:32;97965.91;;;2.84;100.00
59831;BME280;45711;50.108;13.712;2023-12-28T00:51:57;97973.91;;;3.19;100.00
59831;BME280;45711;50.108;13.712;2023-12-28T00:54:23;97963.41;;;2.47;100.00
59831;BME280;45711;50.108;13.712;2023-12-28T00:56:49;97969.97;;;2.26;100.00
59831;BME280;45711;50.108;13.712;2023-12-28T00:59:14;97978.38;;;2.65;100.00
59831;BME280;45711;50.108;13.712;2023-12-28T01:01:40;97978.84;;;2.62;100.00
59831;BME280;45711;50.108;13.712;2023-12-28T01:04:07;97984.94;;;2.62;100.00
59831;BME280;45711;50.108;13.712;2023-12-28T01:06:32;97978.75;;;2.68;100.00
59831;BME280;45711;50.108;13.712;2023-12-28T01:09:00;97998.81;;;2.99;100.00
59831;BME280;45711;50.108;13.712;2023-12-28T01:11:25;97997.47;;;2.67;100.00
59831;BME280;45711;50.108;13.712;2023-12-28T01:13:53;97993.03;;;2.49;100.00
59831;BME280;45711;50.108;13.712;2023-12-28T01:16:19;97993.13;;;2.72;100.00
59831;BME280;45711;50.108;13.712;2023-12-28T01:18:50;97988.78;;;2.48;100.00
59831;BME280;45711;50.108;13.712;2023-12-28T01:21:18;98004.16;;;2.81;100.00
59831;BME280;45711;50.108;13.712;2023-12-28T01:23:43;97986.97;;;2.60;100.00
59831;BME280;45711;50.108;13.712;2023-12-28T01:26:12;97995.47;;;2.92;100.00
59831;BME280;45711;50.108;13.712;2023-12-28T01:28:38;97992.78;;;2.81;100.00
59831;BME280;45711;50.108;13.712;2023-12-28T01:31:04;98011.13;;;3.17;100.00
59831;BME280;45711;50.108;13.712;2023-12-28T01:33:29;97999.97;;;3.15;100.00
59831;BME280;45711;50.108;13.712;2023-12-28T01:35:58;98001.00;;;2.61;100.00
59831;BME280;45711;50.108;13.712;2023-12-28T01:38:27;97987.75;;;2.19;100.00
59831;BME280;45711;50.108;13.712;2023-12-28T01:40:53;97985.06;;;2.37;100.00
59831;BME280;45711;50.108;13.712;2023-12-28T01:43:19;97983.47;;;2.36;100.00
59831;BME280;45711;50.108;13.712;2023-12-28T01:45:45;97986.97;;;2.30;100.00
59831;BME280;45711;50.108;13.712;2023-12-28T01:48:12;97982.56;;;2.42;100.00
59831;BME280;45711;50.108;13.712;2023-12-28T01:50:39;97990.47;;;2.42;100.00
59831;BME280;45711;50.108;13.712;2023-12-28T01:53:05;97988.44;;;2.26;100.00
59831;BME280;45711;50.108;13.712;2023-12-28T01:55:34;97978.31;;;2.41;100.00
59831;BME280;45711;50.108;13.712;2023-12-28T01:57:59;97983.25;;;2.80;100.00
59831;BME280;45711;50.108;13.712;2023-12-28T02:00:26;97962.81;;;2.45;100.00
59831;BME280;45711;50.108;13.712;2023-12-28T02:02:52;97973.03;;;2.83;100.00
59831;BME280;45711;50.108;13.712;2023-12-28T02:05:17;97982.25;;;2.92;100.00
59831;BME280;45711;50.108;13.712;2023-12-28T02:07:44;97966.44;;;2.74;100.00
59831;BME280;45711;50.108;13.712;2023-12-28T02:10:10;97971.72;;;2.74;100.00
59831;BME280;45711;50.108;13.712;2023-12-28T02:12:40;97963.72;;;2.81;100.00
59831;BME280;45711;50.108;13.712;2023-12-28T02:15:07;97957.03;;;2.66;100.00
59831;BME280;45711;50.108;13.712;2023-12-28T02:17:35;97953.84;;;2.76;100.00
59831;BME280;45711;50.108;13.712;2023-12-28T02:20:03;97950.03;;;2.72;100.00
59831;BME280;45711;50.108;13.712;2023-12-28T02:22:32;97949.00;;;2.73;100.00
59831;BME280;45711;50.108;13.712;2023-12-28T02:25:06;97940.13;;;2.67;100.00
59831;BME280;45711;50.108;13.712;2023-12-28T02:27:34;97933.69;;;2.63;100.00
59831;BME280;45711;50.108;13.712;2023-12-28T02:30:00;97927.53;;;2.81;100.00
59831;BME280;45711;50.108;13.712;2023-12-28T02:32:35;97919.72;;;2.74;100.00
59831;BME280;45711;50.108;13.712;2023-12-28T02:35:09;97920.78;;;2.97;100.00
59831;BME280;45711;50.108;13.712;2023-12-28T02:37:36;97921.91;;;3.01;100.00
59831;BME280;45711;50.108;13.712;2023-12-28T02:40:04;97937.19;;;2.99;100.00
59831;BME280;45711;50.108;13.712;2023-12-28T02:42:31;97928.91;;;2.84;100.00
59831;BME280;45711;50.108;13.712;2023-12-28T02:44:57;97952.72;;;3.07;100.00
59831;BME280;45711;50.108;13.712;2023-12-28T02:47:27;97945.69;;;3.13;100.00
59831;BME280;45711;50.108;13.712;2023-12-28T02:49:53;97946.03;;;2.93;100.00
59831;BME280;45711;50.108;13.712;2023-12-28T02:52:18;97944.56;;;2.97;100.00
59831;BME280;45711;50.108;13.712;2023-12-28T02:54:44;97935.69;;;3.03;100.00
59831;BME280;45711;50.108;13.712;2023-12-28T02:57:10;97935.34;;;3.35;100.00
59831;BME280;45711;50.108;13.712;2023-12-28T02:59:45;97944.00;;;3.94;100.00
59831;BME280;45711;50.108;13.712;2023-12-28T03:02:14;97937.88;;;4.05;100.00
59831;BME280;45711;50.108;13.712;2023-12-28T03:04:40;97927.13;;;4.12;100.00
59831;BME280;45711;50.108;13.712;2023-12-28T03:07:08;97923.22;;;4.14;100.00
59831;BME280;45711;50.108;13.712;2023-12-28T03:09:34;97924.81;;;4.15;100.00
59831;BME280;45711;50.108;13.712;2023-12-28T03:12:02;97922.31;;;4.09;100.00
59831;BME280;45711;50.108;13.712;2023-12-28T03:14:28;97920.88;;;4.18;100.00
59831;BME280;45711;50.108;13.712;2023-12-28T03:16:55;97928.19;;;4.11;100.00
59831;BME280;45711;50.108;13.712;2023-12-28T03:19:21;97926.31;;;4.23;100.00
59831;BME280;45711;50.108;13.712;2023-12-28T03:21:46;97914.91;;;4.22;100.00
59831;BME280;45711;50.108;13.712;2023-12-28T03:24:12;97911.03;;;4.30;100.00
59831;BME280;45711;50.108;13.712;2023-12-28T03:26:38;97913.69;;;4.30;100.00
59831;BME280;45711;50.108;13.712;2023-12-28T03:29:05;97920.28;;;4.27;100.00
59831;BME280;45711;50.108;13.712;2023-12-28T03:31:31;97920.19;;;4.22;100.00
59831;BME280;45711;50.108;13.712;2023-12-28T03:33:58;97911.22;;;4.23;100.00
59831;BME280;45711;50.108;13.712;2023-12-28T03:36:24;97917.47;;;4.34;100.00
59831;BME280;45711;50.108;13.712;2023-12-28T03:38:50;97919.66;;;4.37;100.00
59831;BME280;45711;50.108;13.712;2023-12-28T03:41:19;97919.78;;;4.31;100.00
59831;BME280;45711;50.108;13.712;2023-12-28T03:43:50;97921.88;;;4.28;100.00
59831;BME280;45711;50.108;13.712;2023-12-28T03:46:18;97911.38;;;4.34;100.00
59831;BME280;45711;50.108;13.712;2023-12-28T03:48:44;97910.59;;;4.33;100.00
59831;BME280;45711;50.108;13.712;2023-12-28T03:51:15;97904.00;;;4.36;100.00
59831;BME280;45711;50.108;13.712;2023-12-28T03:53:41;97899.00;;;4.22;100.00
59831;BME280;45711;50.108;13.712;2023-12-28T03:56:06;97901.91;;;4.38;100.00
59831;BME280;45711;50.108;13.712;2023-12-28T03:58:34;97886.63;;;4.11;100.00
59831;BME280;45711;50.108;13.712;2023-12-28T04:01:00;97901.13;;;4.37;100.00
59831;BME280;45711;50.108;13.712;2023-12-28T04:03:26;97887.44;;;4.28;100.00
59831;BME280;45711;50.108;13.712;2023-12-28T04:05:57;97891.47;;;4.31;100.00
59831;BME280;45711;50.108;13.712;2023-12-28T04:08:24;97898.38;;;4.32;100.00
59831;BME280;45711;50.108;13.712;2023-12-28T04:10:52;97906.88;;;4.34;100.00
59831;BME280;45711;50.108;13.712;2023-12-28T04:13:19;97904.47;;;4.33;100.00
59831;BME280;45711;50.108;13.712;2023-12-28T04:15:45;97906.66;;;4.36;100.00
59831;BME280;45711;50.108;13.712;2023-12-28T04:18:11;97911.47;;;4.39;100.00
59831;BME280;45711;50.108;13.712;2023-12-28T04:20:37;97923.56;;;4.35;100.00
59831;BME280;45711;50.108;13.712;2023-12-28T04:23:03;97931.16;;;4.43;100.00
59831;BME280;45711;50.108;13.712;2023-12-28T04:25:32;97931.16;;;4.43;100.00
59831;BME280;45711;50.108;13.712;2023-12-28T04:27:58;97932.66;;;4.39;100.00
59831;BME280;45711;50.108;13.712;2023-12-28T04:30:24;97946.41;;;4.36;100.00
59831;BME280;45711;50.108;13.712;2023-12-28T04:32:49;97944.66;;;4.41;100.00
59831;BME280;45711;50.108;13.712;2023-12-28T04:35:16;97937.41;;;4.37;100.00
59831;BME280;45711;50.108;13.712;2023-12-28T04:37:41;97930.81;;;4.39;100.00
59831;BME280;45711;50.108;13.712;2023-12-28T04:40:08;97943.63;;;4.31;100.00
59831;BME280;45711;50.108;13.712;2023-12-28T04:42:36;97941.31;;;4.34;100.00
59831;BME280;45711;50.108;13.712;2023-12-28T04:45:01;97947.41;;;4.35;100.00
59831;BME280;45711;50.108;13.712;2023-12-28T04:47:27;97947.75;;;4.38;100.00
59831;BME280;45711;50.108;13.712;2023-12-28T04:49:53;97942.72;;;4.37;100.00
59831;BME280;45711;50.108;13.712;2023-12-28T04:52:19;97943.97;;;4.34;100.00
59831;BME280;45711;50.108;13.712;2023-12-28T04:54:45;97952.84;;;4.40;100.00
59831;BME280;45711;50.108;13.712;2023-12-28T04:57:11;97948.22;;;4.35;100.00
59831;BME280;45711;50.108;13.712;2023-12-28T04:59:39;97953.41;;;4.42;100.00
59831;BME280;45711;50.108;13.712;2023-12-28T05:02:05;97949.84;;;4.36;100.00
59831;BME280;45711;50.108;13.712;2023-12-28T05:04:36;97949.16;;;4.41;100.00
59831;BME280;45711;50.108;13.712;2023-12-28T05:07:04;97935.91;;;4.41;100.00
59831;BME280;45711;50.108;13.712;2023-12-28T05:09:29;97934.28;;;4.40;100.00
59831;BME280;45711;50.108;13.712;2023-12-28T05:11:56;97937.25;;;4.43;100.00
59831;BME280;45711;50.108;13.712;2023-12-28T05:14:22;97927.75;;;4.31;100.00
59831;BME280;45711;50.108;13.712;2023-12-28T05:16:49;97925.50;;;4.39;100.00
59831;BME280;45711;50.108;13.712;2023-12-28T05:19:17;97927.16;;;4.40;100.00
59831;BME280;45711;50.108;13.712;2023-12-28T05:21:43;97928.66;;;4.36;100.00
59831;BME280;45711;50.108;13.712;2023-12-28T05:24:09;97929.78;;;4.40;100.00
59831;BME280;45711;50.108;13.712;2023-12-28T05:26:35;97925.75;;;4.38;100.00
59831;BME280;45711;50.108;13.712;2023-12-28T05:29:01;97922.94;;;4.27;100.00
59831;BME280;45711;50.108;13.712;2023-12-28T05:31:26;97929.69;;;4.35;100.00
59831;BME280;45711;50.108;13.712;2023-12-28T05:33:53;97936.75;;;4.29;100.00
59831;BME280;45711;50.108;13.712;2023-12-28T05:36:19;97929.50;;;4.25;100.00
59831;BME280;45711;50.108;13.712;2023-12-28T05:38:45;97922.72;;;4.17;100.00
59831;BME280;45711;50.108;13.712;2023-12-28T05:41:11;97918.09;;;4.24;100.00
59831;BME280;45711;50.108;13.712;2023-12-28T05:43:39;97930.88;;;4.27;100.00
59831;BME280;45711;50.108;13.712;2023-12-28T05:46:05;97930.41;;;4.31;100.00
59831;BME280;45711;50.108;13.712;2023-12-28T05:48:31;97945.56;;;4.35;100.00
59831;BME280;45711;50.108;13.712;2023-12-28T05:50:58;97954.44;;;4.41;100.00
59831;BME280;45711;50.108;13.712;2023-12-28T05:53:24;97960.78;;;4.40;100.00
59831;BME280;45711;50.108;13.712;2023-12-28T05:55:51;97968.81;;;4.45;100.00
59831;BME280;45711;50.108;13.712;2023-12-28T05:58:17;97958.72;;;4.30;100.00
59831;BME280;45711;50.108;13.712;2023-12-28T06:00:43;97967.19;;;4.44;100.00
59831;BME280;45711;50.108;13.712;2023-12-28T06:03:19;97957.00;;;4.36;100.00
59831;BME280;45711;50.108;13.712;2023-12-28T06:05:45;97964.78;;;4.42;100.00
59831;BME280;45711;50.108;13.712;2023-12-28T06:08:12;97961.34;;;4.42;100.00
59831;BME280;45711;50.108;13.712;2023-12-28T06:10:38;97959.25;;;4.44;100.00
59831;BME280;45711;50.108;13.712;2023-12-28T06:13:06;97966.19;;;4.45;100.00
59831;BME280;45711;50.108;13.712;2023-12-28T06:15:34;97957.22;;;4.34;100.00
59831;BME280;45711;50.108;13.712;2023-12-28T06:17:59;97961.91;;;4.44;100.00
59831;BME280;45711;50.108;13.712;2023-12-28T06:20:26;97962.16;;;4.42;100.00
59831;BME280;45711;50.108;13.712;2023-12-28T06:23:01;97966.09;;;4.40;100.00
59831;BME280;45711;50.108;13.712;2023-12-28T06:25:33;97968.59;;;4.46;100.00
59831;BME280;45711;50.108;13.712;2023-12-28T06:28:16;97970.44;;;4.46;100.00
59831;BME280;45711;50.108;13.712;2023-12-28T06:31:03;97969.63;;;4.45;100.00
59831;BME280;45711;50.108;13.712;2023-12-28T06:33:35;97964.25;;;4.40;100.00
59831;BME280;45711;50.108;13.712;2023-12-28T06:36:19;97969.38;;;4.47;100.00
59831;BME280;45711;50.108;13.712;2023-12-28T06:39:09;97956.59;;;4.44;100.00
59831;BME280;45711;50.108;13.712;2023-12-28T06:42:16;97936.69;;;4.41;100.00
59831;BME280;45711;50.108;13.712;2023-12-28T06:45:13;97947.97;;;4.48;100.00
59831;BME280;45711;50.108;13.712;2023-12-28T06:47:53;97971.81;;;4.48;100.00
59831;BME280;45711;50.108;13.712;2023-12-28T06:53:52;97973.63;;;4.48;100.00
59831;BME280;45711;50.108;13.712;2023-12-28T07:31:20;98057.25;;;4.56;100.00
59831;BME280;45711;50.108;13.712;2023-12-28T07:34:48;98050.34;;;4.54;100.00
59831;BME280;45711;50.108;13.712;2023-12-28T07:38:11;98051.41;;;4.53;100.00
59831;BME280;45711;50.108;13.712;2023-12-28T07:40:33;98050.69;;;4.58;100.00
59831;BME280;45711;50.108;13.712;2023-12-28T07:43:03;98061.31;;;4.58;100.00
59831;BME280;45711;50.108;13.712;2023-12-28T07:45:39;98063.59;;;4.54;100.00
59831;BME280;45711;50.108;13.712;2023-12-28T07:48:15;98064.41;;;4.55;100.00
59831;BME280;45711;50.108;13.712;2023-12-28T07:50:46;98062.09;;;4.59;100.00
59831;BME280;45711;50.108;13.712;2023-12-28T07:53:19;98051.16;;;4.55;100.00
59831;BME280;45711;50.108;13.712;2023-12-28T07:55:45;98044.59;;;4.58;100.00
59831;BME280;45711;50.108;13.712;2023-12-28T07:58:28;98061.84;;;4.60;100.00
59831;BME280;45711;50.108;13.712;2023-12-28T08:00:57;98065.31;;;4.61;100.00
59831;BME280;45711;50.108;13.712;2023-12-28T08:03:27;98052.41;;;4.64;100.00
59831;BME280;45711;50.108;13.712;2023-12-28T08:05:55;98056.56;;;4.60;100.00
59831;BME280;45711;50.108;13.712;2023-12-28T08:08:35;98056.81;;;4.59;100.00
59831;BME280;45711;50.108;13.712;2023-12-28T08:11:03;98041.53;;;4.66;100.00
59831;BME280;45711;50.108;13.712;2023-12-28T08:13:37;98043.88;;;4.62;100.00
59831;BME280;45711;50.108;13.712;2023-12-28T08:16:10;98034.50;;;4.71;100.00
59831;BME280;45711;50.108;13.712;2023-12-28T08:18:41;98033.47;;;4.72;100.00
59831;BME280;45711;50.108;13.712;2023-12-28T08:21:09;98025.50;;;4.72;100.00
59831;BME280;45711;50.108;13.712;2023-12-28T08:23:35;98024.47;;;4.73;100.00
59831;BME280;45711;50.108;13.712;2023-12-28T08:26:02;98014.53;;;4.81;100.00
59831;BME280;45711;50.108;13.712;2023-12-28T08:28:36;98017.72;;;4.83;100.00
59831;BME280;45711;50.108;13.712;2023-12-28T08:31:19;98010.56;;;4.83;100.00
59831;BME280;45711;50.108;13.712;2023-12-28T08:33:50;98019.03;;;4.80;100.00
59831;BME280;45711;50.108;13.712;2023-12-28T08:36:19;98013.13;;;4.78;100.00
59831;BME280;45711;50.108;13.712;2023-12-28T08:38:47;98016.84;;;4.77;100.00
59831;BME280;45711;50.108;13.712;2023-12-28T08:41:20;98021.09;;;4.78;100.00
59831;BME280;45711;50.108;13.712;2023-12-28T08:44:01;98028.03;;;4.79;100.00
59831;BME280;45711;50.108;13.712;2023-12-28T08:46:42;98024.00;;;4.76;100.00
59831;BME280;45711;50.108;13.712;2023-12-28T08:49:11;98043.00;;;4.73;100.00
59831;BME280;45711;50.108;13.712;2023-12-28T08:51:52;98057.44;;;4.66;100.00
59831;BME280;45711;50.108;13.712;2023-12-28T08:54:21;98069.69;;;4.67;100.00
59831;BME280;45711;50.108;13.712;2023-12-28T08:56:51;98075.19;;;4.65;100.00
59831;BME280;45711;50.108;13.712;2023-12-28T08:59:47;98092.50;;;4.68;100.00
59831;BME280;45711;50.108;13.712;2023-12-28T09:02:23;98088.34;;;4.60;100.00
59831;BME280;45711;50.108;13.712;2023-12-28T09:04:52;98097.44;;;4.64;100.00
59831;BME280;45711;50.108;13.712;2023-12-28T09:07:35;98071.53;;;4.66;100.00
59831;BME280;45711;50.108;13.712;2023-12-28T09:10:12;98073.34;;;4.66;100.00
59831;BME280;45711;50.108;13.712;2023-12-28T09:12:45;98068.03;;;4.66;100.00
59831;BME280;45711;50.108;13.712;2023-12-28T09:15:13;98057.22;;;4.67;100.00
59831;BME280;45711;50.108;13.712;2023-12-28T09:17:59;98047.75;;;4.71;100.00
59831;BME280;45711;50.108;13.712;2023-12-28T09:20:34;98028.50;;;4.76;100.00
59831;BME280;45711;50.108;13.712;2023-12-28T09:23:15;98019.03;;;4.80;100.00
59831;BME280;45711;50.108;13.712;2023-12-28T09:25:47;98008.53;;;5.02;100.00
59831;BME280;45711;50.108;13.712;2023-12-28T09:35:29;98054.66;;;4.72;100.00
59831;BME280;45711;50.108;13.712;2023-12-28T09:41:43;98052.56;;;4.74;100.00
59831;BME280;45711;50.108;13.712;2023-12-28T09:44:47;98069.06;;;4.76;100.00
59831;BME280;45711;50.108;13.712;2023-12-28T09:47:08;98067.69;;;4.74;100.00
59831;BME280;45711;50.108;13.712;2023-12-28T09:49:57;98057.88;;;4.74;100.00
59831;BME280;45711;50.108;13.712;2023-12-28T09:56:54;98048.19;;;4.80;100.00
59831;BME280;45711;50.108;13.712;2023-12-28T10:03:16;98068.91;;;4.83;100.00
59831;BME280;45711;50.108;13.712;2023-12-28T10:05:56;98076.31;;;4.81;100.00
59831;BME280;45711;50.108;13.712;2023-12-28T10:08:49;98073.31;;;4.77;100.00
59831;BME280;45711;50.108;13.712;2023-12-28T10:12:32;98073.31;;;4.77;100.00
59831;BME280;45711;50.108;13.712;2023-12-28T10:14:17;98062.28;;;4.97;100.00
59831;BME280;45711;50.108;13.712;2023-12-28T10:16:42;98050.84;;;4.80;100.00
59831;BME280;45711;50.108;13.712;2023-12-28T10:19:21;98054.75;;;5.06;100.00
59831;BME280;45711;50.108;13.712;2023-12-28T10:21:55;98032.25;;;5.25;100.00
59831;BME280;45711;50.108;13.712;2023-12-28T10:24:36;98038.44;;;5.31;100.00
59831;BME280;45711;50.108;13.712;2023-12-28T10:27:21;98036.50;;;5.26;100.00
59831;BME280;45711;50.108;13.712;2023-12-28T10:29:54;98040.53;;;5.29;100.00
59831;BME280;45711;50.108;13.712;2023-12-28T10:32:29;98038.13;;;5.44;100.00
59831;BME280;45711;50.108;13.712;2023-12-28T10:35:03;98052.25;;;5.16;100.00
59831;BME280;45711;50.108;13.712;2023-12-28T10:37:33;98056.34;;;5.07;100.00
59831;BME280;45711;50.108;13.712;2023-12-28T10:40:23;98048.72;;;5.11;100.00
59831;BME280;45711;50.108;13.712;2023-12-28T10:43:27;98051.53;;;5.21;100.00
59831;BME280;45711;50.108;13.712;2023-12-28T10:45:56;98035.41;;;5.22;100.00
59831;BME280;45711;50.108;13.712;2023-12-28T10:49:05;98040.03;;;5.15;100.00
59831;BME280;45711;50.108;13.712;2023-12-28T10:51:49;98028.78;;;5.25;100.00
59831;BME280;45711;50.108;13.712;2023-12-28T10:54:33;98026.53;;;5.34;100.00
59831;BME280;45711;50.108;13.712;2023-12-28T11:13:55;98032.72;;;5.06;100.00
59831;BME280;45711;50.108;13.712;2023-12-28T11:16:25;98021.31;;;5.05;100.00
59831;BME280;45711;50.108;13.712;2023-12-28T11:18:58;98020.50;;;5.21;100.00
59831;BME280;45711;50.108;13.712;2023-12-28T11:21:35;98024.91;;;4.99;100.00
59831;BME280;45711;50.108;13.712;2023-12-28T11:24:01;98030.06;;;5.06;100.00
59831;BME280;45711;50.108;13.712;2023-12-28T11:27:20;98022.34;;;5.04;100.00
59831;BME280;45711;50.108;13.712;2023-12-28T11:29:42;98003.97;;;5.14;100.00
59831;BME280;45711;50.108;13.712;2023-12-28T11:32:17;98023.56;;;4.96;100.00
59831;BME280;45711;50.108;13.712;2023-12-28T11:34:56;98026.50;;;5.00;100.00
59831;BME280;45711;50.108;13.712;2023-12-28T11:38:04;98007.88;;;5.12;100.00
59831;BME280;45711;50.108;13.712;2023-12-28T11:40:46;98001.78;;;5.11;100.00
59831;BME280;45711;50.108;13.712;2023-12-28T11:45:16;98002.97;;;5.03;100.00
59831;BME280;45711;50.108;13.712;2023-12-28T11:46:09;98004.19;;;5.13;100.00
59831;BME280;45711;50.108;13.712;2023-12-28T11:48:45;98006.41;;;5.04;100.00
59831;BME280;45711;50.108;13.712;2023-12-28T11:51:19;98004.97;;;5.13;100.00
59831;BME280;45711;50.108;13.712;2023-12-28T11:53:55;97990.75;;;5.19;100.00
59831;BME280;45711;50.108;13.712;2023-12-28T11:56:25;97994.63;;;5.12;100.00
59831;BME280;45711;50.108;13.712;2023-12-28T11:58:59;97984.19;;;5.05;100.00
59831;BME280;45711;50.108;13.712;2023-12-28T12:04:39;97980.88;;;5.15;100.00
59831;BME280;45711;50.108;13.712;2023-12-28T12:07:24;97967.94;;;5.57;100.00
59831;BME280;45711;50.108;13.712;2023-12-28T12:09:55;97978.22;;;5.15;100.00
59831;BME280;45711;50.108;13.712;2023-12-28T12:12:26;97967.13;;;5.18;100.00
59831;BME280;45711;50.108;13.712;2023-12-28T12:15:26;97965.91;;;5.25;100.00
59831;BME280;45711;50.108;13.712;2023-12-28T12:17:54;97963.25;;;5.42;100.00
59831;BME280;45711;50.108;13.712;2023-12-28T12:23:07;97961.66;;;5.08;100.00
59831;BME280;45711;50.108;13.712;2023-12-28T12:25:36;97968.00;;;5.23;100.00
59831;BME280;45711;50.108;13.712;2023-12-28T12:28:16;97971.47;;;5.07;100.00
59831;BME280;45711;50.108;13.712;2023-12-28T12:31:13;97965.19;;;5.13;100.00
59831;BME280;45711;50.108;13.712;2023-12-28T12:33:39;97963.59;;;5.12;100.00
59831;BME280;45711;50.108;13.712;2023-12-28T12:36:08;97961.09;;;5.22;100.00
59831;BME280;45711;50.108;13.712;2023-12-28T12:38:34;97971.06;;;5.15;100.00
59831;BME280;45711;50.108;13.712;2023-12-28T12:41:00;97985.59;;;5.13;100.00
59831;BME280;45711;50.108;13.712;2023-12-28T12:43:26;97982.63;;;5.09;100.00
59831;BME280;45711;50.108;13.712;2023-12-28T12:45:52;97989.63;;;5.15;100.00
59831;BME280;45711;50.108;13.712;2023-12-28T12:48:19;98004.75;;;5.15;100.00
59831;BME280;45711;50.108;13.712;2023-12-28T12:50:45;97999.28;;;5.21;100.00
59831;BME280;45711;50.108;13.712;2023-12-28T12:53:11;98002.09;;;5.15;100.00
59831;BME280;45711;50.108;13.712;2023-12-28T12:55:39;98004.84;;;5.20;100.00
59831;BME280;45711;50.108;13.712;2023-12-28T12:58:07;97991.63;;;5.25;100.00
59831;BME280;45711;50.108;13.712;2023-12-28T13:00:33;97979.44;;;5.24;100.00
59831;BME280;45711;50.108;13.712;2023-12-28T13:02:59;97979.97;;;5.26;100.00
59831;BME280;45711;50.108;13.712;2023-12-28T13:05:26;97975.97;;;5.23;100.00
59831;BME280;45711;50.108;13.712;2023-12-28T13:07:53;97982.41;;;5.27;100.00
59831;BME280;45711;50.108;13.712;2023-12-28T13:10:19;97984.66;;;5.19;100.00
59831;BME280;45711;50.108;13.712;2023-12-28T13:12:45;97978.94;;;5.27;100.00
59831;BME280;45711;50.108;13.712;2023-12-28T13:15:12;97976.19;;;5.22;100.00
59831;BME280;45711;50.108;13.712;2023-12-28T13:17:38;97974.59;;;5.38;100.00
59831;BME280;45711;50.108;13.712;2023-12-28T13:20:04;97975.19;;;5.23;100.00
59831;BME280;45711;50.108;13.712;2023-12-28T13:22:32;97981.81;;;5.25;100.00
59831;BME280;45711;50.108;13.712;2023-12-28T13:25:03;97985.94;;;5.33;100.00
59831;BME280;45711;50.108;13.712;2023-12-28T13:27:29;97999.34;;;5.26;100.00
59831;BME280;45711;50.108;13.712;2023-12-28T13:29:57;98000.31;;;5.20;100.00
59831;BME280;45711;50.108;13.712;2023-12-28T13:32:22;98000.06;;;5.22;100.00
59831;BME280;45711;50.108;13.712;2023-12-28T13:34:48;98002.81;;;5.44;100.00
59831;BME280;45711;50.108;13.712;2023-12-28T13:37:16;98005.16;;;5.23;100.00
59831;BME280;45711;50.108;13.712;2023-12-28T13:39:43;97996.69;;;5.26;100.00
59831;BME280;45711;50.108;13.712;2023-12-28T13:42:08;97990.38;;;5.27;100.00
59831;BME280;45711;50.108;13.712;2023-12-28T13:44:36;97987.84;;;5.38;100.00
59831;BME280;45711;50.108;13.712;2023-12-28T13:47:02;97987.22;;;5.30;100.00
59831;BME280;45711;50.108;13.712;2023-12-28T13:49:28;97989.47;;;5.22;100.00
59831;BME280;45711;50.108;13.712;2023-12-28T13:51:54;97979.50;;;5.29;100.00
59831;BME280;45711;50.108;13.712;2023-12-28T13:54:20;97986.88;;;5.44;100.00
59831;BME280;45711;50.108;13.712;2023-12-28T13:56:48;97985.59;;;5.46;100.00
59831;BME280;45711;50.108;13.712;2023-12-28T13:59:13;97986.25;;;5.37;100.00
59831;BME280;45711;50.108;13.712;2023-12-28T14:01:42;97980.03;;;5.31;100.00
59831;BME280;45711;50.108;13.712;2023-12-28T14:04:08;97984.56;;;5.30;100.00
59831;BME280;45711;50.108;13.712;2023-12-28T14:06:34;97976.25;;;5.44;100.00
59831;BME280;45711;50.108;13.712;2023-12-28T14:08:59;97973.84;;;5.42;100.00
59831;BME280;45711;50.108;13.712;2023-12-28T14:11:25;97975.31;;;5.33;100.00
59831;BME280;45711;50.108;13.712;2023-12-28T14:14:07;97981.09;;;5.30;100.00
59831;BME280;45711;50.108;13.712;2023-12-28T14:16:33;97995.28;;;5.36;100.00
59831;BME280;45711;50.108;13.712;2023-12-28T14:18:59;97996.53;;;5.33;100.00
59831;BME280;45711;50.108;13.712;2023-12-28T14:21:27;98004.25;;;5.35;100.00
59831;BME280;45711;50.108;13.712;2023-12-28T14:24:03;97999.75;;;5.35;100.00
59831;BME280;45711;50.108;13.712;2023-12-28T14:26:29;98006.84;;;5.29;100.00
59831;BME280;45711;50.108;13.712;2023-12-28T14:28:57;98006.97;;;5.40;100.00